Time;durP1;ratioP1;P1;durP2;ratioP2;P2;SDS_P1;SDS_P2;PMS_P1;PMS_P2;Temp;Humidity;BMP_temperature;BMP_pressure;BME280_temperature;BME280_humidity;BME280_pressure;Samples;Min_cycle;Max_cycle;Signal;HPM_P1;HPM_P2
2021/12/08 00:03:47;;;;;;;9.67;8.77;;;;;;;;;;12494188;28;20049;-73
2021/12/08 00:10:01;;;;;;;9.85;8.93;;;;;;;;;;12494652;28;20033;-73
2021/12/08 00:16:07;;;;;;;9.43;8.50;;;;;;;;;;12494638;28;20038;-73
2021/12/08 00:22:09;;;;;;;8.25;7.50;;;;;;;;;;12493386;28;20041;-73
2021/12/08 00:28:11;;;;;;;8.27;7.47;;;;;;;;;;12493397;28;20478;-73
2021/12/08 00:34:13;;;;;;;8.77;7.93;;;;;;;;;;12494960;28;20433;-73
2021/12/08 00:40:17;;;;;;;8.00;7.30;;;;;;;;;;12494196;28;20042;-73
2021/12/08 00:46:19;;;;;;;8.52;7.72;;;;;;;;;;12492745;28;20061;-73
2021/12/08 00:52:20;;;;;;;7.18;6.45;;;;;;;;;;12495238;28;20513;-73
2021/12/08 00:58:22;;;;;;;8.35;7.45;;;;;;;;;;12485008;28;20056;-73
2021/12/08 01:04:24;;;;;;;7.85;7.13;;;;;;;;;;12502792;28;20065;-73
2021/12/08 01:10:27;;;;;;;8.17;7.23;;;;;;;;;;12502712;28;20471;-73
2021/12/08 01:16:29;;;;;;;8.18;7.45;;;;;;;;;;12501482;28;20049;-73
2021/12/08 01:22:31;;;;;;;7.10;6.43;;;;;;;;;;12484469;28;20045;-73
2021/12/08 01:28:33;;;;;;;8.35;7.57;;;;;;;;;;12501310;28;20036;-73
2021/12/08 01:34:35;;;;;;;6.80;6.20;;;;;;;;;;12501826;28;20037;-73
2021/12/08 01:40:36;;;;;;;9.57;8.53;;;;;;;;;;12500069;28;20045;-74
2021/12/08 01:46:38;;;;;;;6.75;6.15;;;;;;;;;;12500241;28;20042;-73
2021/12/08 01:52:40;;;;;;;8.45;7.65;;;;;;;;;;12499472;28;20029;-73
2021/12/08 01:58:42;;;;;;;8.43;7.63;;;;;;;;;;12499402;28;20037;-73
2021/12/08 02:04:43;;;;;;;7.22;6.63;;;;;;;;;;12498757;28;20561;-73
2021/12/08 02:10:45;;;;;;;7.32;6.68;;;;;;;;;;12498942;28;20035;-73
2021/12/08 02:16:48;;;;;;;10.73;9.73;;;;;;;;;;12498439;28;20036;-74
2021/12/08 02:22:49;;;;;;;9.15;8.27;;;;;;;;;;12498543;28;20054;-74
2021/12/08 02:28:53;;;;;;;8.68;7.95;;;;;;;;;;12498018;28;20042;-73
2021/12/08 02:47:53;;;;;;;7.03;6.43;;;;;;;;;;12498112;28;20494;-73
2021/12/08 02:53:54;;;;;;;8.10;7.30;;;;;;;;;;12498511;28;20038;-72
2021/12/08 02:59:56;;;;;;;9.60;8.65;;;;;;;;;;12496400;28;20041;-73
2021/12/08 03:05:59;;;;;;;9.43;8.40;;;;;;;;;;12497588;28;20065;-73
2021/12/08 03:12:01;;;;;;;7.97;7.18;;;;;;;;;;12496045;28;20379;-74
2021/12/08 03:18:04;;;;;;;9.23;8.38;;;;;;;;;;12494684;28;20037;-74
2021/12/08 03:24:19;;;;;;;8.13;7.20;;;;;;;;;;12496793;28;20045;-74
2021/12/08 03:30:29;;;;;;;8.35;7.40;;;;;;;;;;12496255;28;20537;-74
2021/12/08 03:36:32;;;;;;;6.70;6.10;;;;;;;;;;12497311;28;20061;-74
2021/12/08 03:42:36;;;;;;;7.80;7.07;;;;;;;;;;12495757;28;20046;-74
2021/12/08 03:48:46;;;;;;;8.07;7.28;;;;;;;;;;12496255;28;20033;-74
2021/12/08 03:54:48;;;;;;;7.68;7.03;;;;;;;;;;12495191;28;20394;-74
2021/12/08 04:00:50;;;;;;;7.85;7.05;;;;;;;;;;12495857;28;20037;-74
2021/12/08 04:06:53;;;;;;;6.38;5.88;;;;;;;;;;12493891;28;20064;-74
2021/12/08 04:12:55;;;;;;;7.03;6.43;;;;;;;;;;12494985;28;20049;-74
2021/12/08 04:18:57;;;;;;;7.70;6.90;;;;;;;;;;12494789;28;20046;-73
2021/12/08 04:24:59;;;;;;;8.32;7.45;;;;;;;;;;12494608;28;20030;-73
2021/12/08 04:31:09;;;;;;;7.75;6.93;;;;;;;;;;12500528;28;20037;-73
2021/12/08 04:37:18;;;;;;;6.80;6.20;;;;;;;;;;12503809;28;20041;-74
2021/12/08 04:43:30;;;;;;;7.22;6.53;;;;;;;;;;12504611;28;20033;-73
2021/12/08 05:02:34;;;;;;;5.68;5.18;;;;;;;;;;12503174;28;20048;-73
2021/12/08 05:08:41;;;;;;;5.95;5.35;;;;;;;;;;12503929;28;20057;-73
2021/12/08 05:14:45;;;;;;;5.10;4.70;;;;;;;;;;12501891;28;20041;-73
2021/12/08 05:20:53;;;;;;;5.82;5.22;;;;;;;;;;12502376;28;20250;-73
2021/12/08 05:26:58;;;;;;;5.35;4.60;;;;;;;;;;12502277;28;20356;-73
2021/12/08 05:33:01;;;;;;;5.07;4.60;;;;;;;;;;12501963;28;20037;-73
2021/12/08 05:39:02;;;;;;;;;;;;;;;;;;12500944;28;20056;-73
2021/12/08 05:45:06;;;;;;;6.57;5.38;;;;;;;;;;12499936;28;19916;-73
2021/12/08 05:51:27;;;;;;;5.97;5.07;;;;;;;;;;12500932;28;20475;-73
2021/12/08 05:57:32;;;;;;;5.63;5.13;;;;;;;;;;12499591;28;20402;-73
2021/12/08 06:03:34;;;;;;;5.72;5.22;;;;;;;;;;12500889;28;20037;-73
2021/12/08 06:09:37;;;;;;;5.30;4.73;;;;;;;;;;12499102;28;20506;-73
2021/12/08 06:15:40;;;;;;;5.30;4.78;;;;;;;;;;12499908;28;20033;-73
2021/12/08 06:21:42;;;;;;;4.97;4.22;;;;;;;;;;12498123;28;20410;-73
2021/12/08 06:27:45;;;;;;;5.35;4.75;;;;;;;;;;12499299;28;20036;-73
2021/12/08 06:33:46;;;;;;;5.73;4.70;;;;;;;;;;12499767;28;20042;-73
2021/12/08 06:40:11;;;;;;;4.60;4.20;;;;;;;;;;12498275;28;20292;-73
2021/12/08 06:46:13;;;;;;;3.70;3.38;;;;;;;;;;12497128;28;20026;-72
2021/12/08 06:52:17;;;;;;;4.10;3.70;;;;;;;;;;12496677;28;20096;-73
2021/12/08 06:58:21;;;;;;;4.32;3.92;;;;;;;;;;12480320;28;20052;-74
2021/12/08 07:04:33;;;;;;;4.07;3.67;;;;;;;;;;12496350;28;20050;-74
2021/12/08 07:10:38;;;;;;;4.63;4.22;;;;;;;;;;12496992;28;20033;-74
2021/12/08 07:16:45;;;;;;;4.22;3.92;;;;;;;;;;12496521;28;20495;-74
2021/12/08 07:22:50;;;;;;;4.00;3.67;;;;;;;;;;12496496;28;20041;-74
2021/12/08 07:28:53;;;;;;;4.32;4.03;;;;;;;;;;12494866;28;20486;-74
2021/12/08 07:34:55;;;;;;;4.53;4.13;;;;;;;;;;12496847;28;20406;-74
2021/12/08 07:41:02;;;;;;;4.30;3.90;;;;;;;;;;12495512;28;20043;-74
2021/12/08 07:47:06;;;;;;;4.63;4.05;;;;;;;;;;12495611;28;21130;-74
2021/12/08 07:53:10;;;;;;;4.70;4.30;;;;;;;;;;12494194;28;20378;-74
2021/12/08 07:59:13;;;;;;;4.63;4.28;;;;;;;;;;12495047;28;20149;-74
2021/12/08 08:05:17;;;;;;;5.88;5.32;;;;;;;;;;12493390;28;20065;-74
2021/12/08 08:11:24;;;;;;;8.15;6.25;;;;;;;;;;12493539;28;20038;-74
2021/12/08 08:17:33;;;;;;;6.47;5.85;;;;;;;;;;12493422;28;20041;-73
2021/12/08 08:23:35;;;;;;;6.18;5.60;;;;;;;;;;12493065;28;20379;-73
2021/12/08 08:29:37;;;;;;;5.47;4.97;;;;;;;;;;12494619;28;20037;-73
2021/12/08 08:35:43;;;;;;;6.70;6.10;;;;;;;;;;12494346;28;20049;-73
2021/12/08 08:41:49;;;;;;;5.60;5.05;;;;;;;;;;12492829;28;20041;-73
2021/12/08 08:48:05;;;;;;;5.47;4.97;;;;;;;;;;12494134;28;20041;-73
2021/12/08 08:54:09;;;;;;;6.07;4.22;;;;;;;;;;12492579;28;20532;-73
2021/12/08 09:00:14;;;;;;;4.68;4.28;;;;;;;;;;12494166;28;20049;-73
2021/12/08 09:06:19;;;;;;;4.22;3.92;;;;;;;;;;12492782;28;20058;-73
2021/12/08 09:12:33;;;;;;;4.07;3.78;;;;;;;;;;12492147;28;20030;-73
2021/12/08 09:18:50;;;;;;;4.90;4.40;;;;;;;;;;12500463;28;20049;-73
2021/12/08 09:24:52;;;;;;;4.28;3.97;;;;;;;;;;12501668;28;20048;-73
2021/12/08 09:31:01;;;;;;;4.70;4.30;;;;;;;;;;12501258;28;20033;-73
2021/12/08 09:37:06;;;;;;;4.78;4.38;;;;;;;;;;12501281;28;20295;-74
2021/12/08 09:43:13;;;;;;;4.75;4.28;;;;;;;;;;12501052;28;20046;-74
2021/12/08 09:49:16;;;;;;;5.28;4.78;;;;;;;;;;12500880;28;20052;-73
2021/12/08 09:55:18;;;;;;;8.20;7.35;;;;;;;;;;12500457;28;20044;-73
2021/12/08 10:01:22;;;;;;;5.15;4.60;;;;;;;;;;12500682;28;20045;-72
2021/12/08 10:07:25;;;;;;;5.60;5.10;;;;;;;;;;12499305;28;20404;-73
2021/12/08 10:13:27;;;;;;;6.70;6.00;;;;;;;;;;12499014;28;20043;-72
2021/12/08 10:19:28;;;;;;;5.70;5.10;;;;;;;;;;12498328;28;20041;-75
2021/12/08 10:25:34;;;;;;;5.88;5.07;;;;;;;;;;12497759;28;20029;-74
2021/12/08 10:31:42;;;;;;;5.95;5.45;;;;;;;;;;12497921;28;20040;-73
2021/12/08 10:37:44;;;;;;;6.65;6.00;;;;;;;;;;12498403;28;20099;-73
2021/12/08 10:43:56;;;;;;;6.27;5.67;;;;;;;;;;12497554;28;20037;-73
2021/12/08 10:56:07;;;;;;;7.05;6.43;;;;;;;;;;12496942;28;20051;-73
2021/12/08 11:02:29;;;;;;;8.02;7.18;;;;;;;;;;12497571;28;20045;-72
2021/12/08 11:08:32;;;;;;;9.40;7.60;;;;;;;;;;12498269;28;20060;-73
2021/12/08 11:14:44;;;;;;;7.97;7.18;;;;;;;;;;12496096;28;20390;-73
2021/12/08 11:20:51;;;;;;;7.07;6.45;;;;;;;;;;12495728;28;20056;-73
2021/12/08 11:26:54;;;;;;;7.50;6.85;;;;;;;;;;12494936;28;20029;-73
2021/12/08 11:33:31;;;;;;;7.75;6.68;;;;;;;;;;12494991;28;20043;-73
2021/12/08 11:39:34;;;;;;;9.07;8.00;;;;;;;;;;12492869;28;20050;-73
2021/12/08 11:45:40;;;;;;;7.50;6.78;;;;;;;;;;12496154;28;20402;-73
2021/12/08 11:51:44;;;;;;;8.30;7.50;;;;;;;;;;12494692;28;20037;-73
2021/12/08 11:57:54;;;;;;;7.95;7.18;;;;;;;;;;12493687;28;20038;-74
2021/12/08 12:03:56;;;;;;;6.85;6.20;;;;;;;;;;12495295;28;20525;-73
2021/12/08 12:09:57;;;;;;;7.45;6.85;;;;;;;;;;12494967;28;20041;-73
2021/12/08 12:15:59;;;;;;;6.93;6.30;;;;;;;;;;12493417;28;20483;-73
2021/12/08 12:22:13;;;;;;;8.93;8.13;;;;;;;;;;12494500;28;20037;-73
2021/12/08 12:28:15;;;;;;;8.32;7.53;;;;;;;;;;12494212;28;20042;-73
2021/12/08 12:34:31;;;;;;;7.90;7.20;;;;;;;;;;12493726;28;20034;-73
2021/12/08 12:40:35;;;;;;;10.00;7.60;;;;;;;;;;12493841;28;20041;-73
2021/12/08 12:46:37;;;;;;;7.57;6.90;;;;;;;;;;12493823;28;20033;-73
2021/12/08 12:52:53;;;;;;;8.50;7.70;;;;;;;;;;12501982;28;20037;-73
2021/12/08 12:58:56;;;;;;;9.13;8.32;;;;;;;;;;12503141;28;20048;-74
2021/12/08 13:05:08;;;;;;;7.70;7.00;;;;;;;;;;12502216;28;20073;-73
2021/12/08 13:11:25;;;;;;;10.63;9.27;;;;;;;;;;12501585;28;20030;-73
2021/12/08 13:17:27;;;;;;;8.70;7.90;;;;;;;;;;12501209;28;20037;-73
2021/12/08 13:23:30;;;;;;;7.68;6.75;;;;;;;;;;12502103;28;20041;-74
2021/12/08 13:29:34;;;;;;;8.52;7.75;;;;;;;;;;12501980;28;20041;-73
2021/12/08 13:35:36;;;;;;;11.25;10.15;;;;;;;;;;12501364;28;20092;-73
2021/12/08 13:41:39;;;;;;;9.50;8.60;;;;;;;;;;12501259;28;20506;-73
2021/12/08 13:47:41;;;;;;;;;;;;;;;;;;12501750;28;20391;-72
2021/12/08 13:53:42;;;;;;;8.57;7.75;;;;;;;;;;12499619;28;19913;-73
2021/12/08 14:00:03;;;;;;;8.18;7.47;;;;;;;;;;12498660;28;20506;-74
2021/12/08 14:06:14;;;;;;;7.70;6.97;;;;;;;;;;12500773;28;20053;-74
2021/12/08 14:12:16;;;;;;;6.57;6.03;;;;;;;;;;12499732;28;20037;-73
2021/12/08 14:18:25;;;;;;;8.65;7.63;;;;;;;;;;12500292;28;20044;-73
2021/12/08 14:24:27;;;;;;;27.13;15.43;;;;;;;;;;12499580;28;20410;-74
2021/12/08 14:30:29;;;;;;;19.75;12.93;;;;;;;;;;12499543;28;20037;-74
2021/12/08 14:36:36;;;;;;;11.05;9.98;;;;;;;;;;12498325;28;20042;-74
2021/12/08 14:42:38;;;;;;;6.93;6.22;;;;;;;;;;12498605;28;20407;-74
2021/12/08 14:48:45;;;;;;;7.10;6.45;;;;;;;;;;12497397;28;20029;-74
2021/12/08 14:54:51;;;;;;;7.53;6.93;;;;;;;;;;12497876;28;20037;-74
2021/12/08 15:00:53;;;;;;;7.28;6.68;;;;;;;;;;12496799;28;20060;-74
2021/12/08 15:06:59;;;;;;;10.48;8.50;;;;;;;;;;12497943;28;20490;-74
2021/12/08 15:13:09;;;;;;;7.57;6.88;;;;;;;;;;12496196;28;20390;-74
2021/12/08 15:19:13;;;;;;;6.82;6.13;;;;;;;;;;12496854;28;20049;-74
2021/12/08 15:25:21;;;;;;;5.97;5.47;;;;;;;;;;12496739;28;20029;-74
2021/12/08 15:31:34;;;;;;;8.52;6.47;;;;;;;;;;12495448;28;20038;-74
2021/12/08 15:37:49;;;;;;;6.60;6.10;;;;;;;;;;12495553;28;20498;-73
2021/12/08 15:44:10;;;;;;;5.93;5.43;;;;;;;;;;12496270;28;20048;-73
2021/12/08 15:50:21;;;;;;;5.30;4.80;;;;;;;;;;12494591;28;20060;-74
2021/12/08 15:56:22;;;;;;;4.38;3.97;;;;;;;;;;12495632;28;20041;-74
2021/12/08 16:02:27;;;;;;;4.10;3.78;;;;;;;;;;12493976;28;20045;-74
2021/12/08 16:08:29;;;;;;;4.18;3.78;;;;;;;;;;12493738;28;20053;-74
2021/12/08 16:14:51;;;;;;;3.80;3.50;;;;;;;;;;12493447;28;20051;-74
2021/12/08 16:20:54;;;;;;;3.85;3.45;;;;;;;;;;12493274;28;20513;-74
2021/12/08 16:26:57;;;;;;;3.75;3.20;;;;;;;;;;12494012;28;20029;-74
2021/12/08 16:32:59;;;;;;;2.97;2.78;;;;;;;;;;12494310;28;20471;-73
2021/12/08 16:39:04;;;;;;;3.42;3.13;;;;;;;;;;12494167;28;20049;-73
2021/12/08 16:45:06;;;;;;;2.47;2.28;;;;;;;;;;12493656;28;20037;-73
2021/12/08 16:51:08;;;;;;;3.50;3.20;;;;;;;;;;12492752;28;20037;-74
2021/12/08 16:57:09;;;;;;;2.40;2.20;;;;;;;;;;12493993;28;20036;-74
2021/12/08 17:03:13;;;;;;;2.92;2.72;;;;;;;;;;12492432;28;20426;-73
2021/12/08 17:09:15;;;;;;;2.20;2.08;;;;;;;;;;12494202;28;20063;-74
2021/12/08 17:15:17;;;;;;;2.40;2.20;;;;;;;;;;12476427;28;20040;-73
2021/12/08 17:21:19;;;;;;;2.88;2.67;;;;;;;;;;12492580;28;20048;-73
2021/12/08 17:27:20;;;;;;;2.65;2.45;;;;;;;;;;12491903;28;20026;-74
2021/12/08 17:33:22;;;;;;;4.43;3.22;;;;;;;;;;12493274;28;20033;-73
2021/12/08 17:39:25;;;;;;;4.57;3.38;;;;;;;;;;12499351;28;20054;-75
2021/12/08 17:45:29;;;;;;;3.15;2.88;;;;;;;;;;12501455;28;20033;-73
2021/12/08 17:51:31;;;;;;;2.83;2.58;;;;;;;;;;12499910;28;20418;-75
2021/12/08 17:57:32;;;;;;;2.55;2.25;;;;;;;;;;12501272;28;20033;-73
2021/12/08 18:03:35;;;;;;;2.85;2.65;;;;;;;;;;12500736;28;20056;-73
2021/12/08 18:09:36;;;;;;;3.13;2.90;;;;;;;;;;12500374;28;20029;-73
2021/12/08 18:15:39;;;;;;;2.67;2.15;;;;;;;;;;12499847;28;20223;-73
2021/12/08 18:22:39;;;;;;;2.22;2.03;;;;;;;;;;12586987;28;20876;-73
2021/12/08 18:28:41;;;;;;;2.90;2.70;;;;;;;;;;12586778;28;20028;-73
2021/12/08 18:34:43;;;;;;;3.33;2.33;;;;;;;;;;12586684;28;20028;-74
2021/12/08 18:40:45;;;;;;;3.00;2.70;;;;;;;;;;12586430;28;20052;-73
2021/12/08 18:46:47;;;;;;;2.60;2.40;;;;;;;;;;12586053;28;20043;-73
2021/12/08 18:52:48;;;;;;;3.05;2.63;;;;;;;;;;12586009;28;20036;-74
2021/12/08 18:58:52;;;;;;;2.72;2.53;;;;;;;;;;12567730;28;20036;-73
2021/12/08 19:04:55;;;;;;;3.30;3.00;;;;;;;;;;12585524;28;20522;-73
2021/12/08 19:10:56;;;;;;;3.55;3.25;;;;;;;;;;12585203;28;20037;-73
2021/12/08 19:16:59;;;;;;;2.70;2.10;;;;;;;;;;12584088;28;20048;-73
2021/12/08 19:23:06;;;;;;;2.23;2.03;;;;;;;;;;12583057;28;20036;-73
2021/12/08 19:29:10;;;;;;;2.00;1.90;;;;;;;;;;12576501;28;20772;-74
2021/12/08 19:35:12;;;;;;;2.72;2.35;;;;;;;;;;12549452;28;20033;-73
2021/12/08 19:41:14;;;;;;;2.13;2.03;;;;;;;;;;12550594;28;20041;-74
2021/12/08 19:47:15;;;;;;;2.05;1.80;;;;;;;;;;12549319;28;20048;-74
2021/12/08 19:53:17;;;;;;;2.50;2.30;;;;;;;;;;12549828;28;20473;-75
2021/12/08 19:59:19;;;;;;;2.63;2.42;;;;;;;;;;12550023;28;20041;-74
2021/12/08 20:05:23;;;;;;;1.90;1.65;;;;;;;;;;12549751;28;20040;-74
2021/12/08 20:11:26;;;;;;;2.30;2.10;;;;;;;;;;12547886;28;20036;-73
2021/12/08 20:17:28;;;;;;;2.60;2.40;;;;;;;;;;12548679;28;20426;-73
2021/12/08 20:23:34;;;;;;;2.10;1.90;;;;;;;;;;12547385;28;20029;-75
2021/12/08 20:29:36;;;;;;;1.80;1.70;;;;;;;;;;12548531;28;20041;-74
2021/12/08 20:35:38;;;;;;;1.63;1.30;;;;;;;;;;12548170;28;20033;-73
2021/12/08 20:41:40;;;;;;;3.05;1.77;;;;;;;;;;12546732;28;20052;-73
2021/12/08 20:47:41;;;;;;;1.70;1.60;;;;;;;;;;12546556;28;20355;-73
2021/12/08 20:53:44;;;;;;;1.20;1.10;;;;;;;;;;12546528;28;20029;-73
2021/12/08 20:59:53;;;;;;;2.40;1.13;;;;;;;;;;12545724;28;20052;-73
2021/12/08 21:05:54;;;;;;;1.05;1.00;;;;;;;;;;12546775;28;20473;-73
2021/12/08 21:11:57;;;;;;;0.93;0.93;;;;;;;;;;12546405;28;20033;-73
2021/12/08 21:18:00;;;;;;;1.15;1.05;;;;;;;;;;12545910;28;20051;-73
2021/12/08 21:24:01;;;;;;;0.90;0.90;;;;;;;;;;12545995;28;20029;-73
2021/12/08 21:30:07;;;;;;;0.75;0.75;;;;;;;;;;12545466;28;20029;-73
2021/12/08 21:36:09;;;;;;;0.88;0.88;;;;;;;;;;12545189;28;20482;-73
2021/12/08 21:42:12;;;;;;;0.93;0.70;;;;;;;;;;12544776;28;20520;-73
2021/12/08 21:48:14;;;;;;;;;;;;;;;;;;12544619;28;20041;-73
2021/12/08 21:54:15;;;;;;;1.67;0.70;;;;;;;;;;12544557;28;20277;-73
2021/12/08 22:00:19;;;;;;;0.88;0.70;;;;;;;;;;12544216;28;20040;-73
2021/12/08 22:06:23;;;;;;;1.02;0.80;;;;;;;;;;12544223;28;20041;-74
2021/12/08 22:12:24;;;;;;;0.85;0.65;;;;;;;;;;12542926;28;20485;-74
2021/12/08 22:18:28;;;;;;;0.80;0.80;;;;;;;;;;12542539;28;20064;-73
2021/12/08 22:24:29;;;;;;;0.55;0.55;;;;;;;;;;12543771;28;20458;-73
2021/12/08 22:30:31;;;;;;;0.82;0.80;;;;;;;;;;12543814;28;20040;-74
2021/12/08 22:36:33;;;;;;;0.75;0.68;;;;;;;;;;12542749;28;20387;-73
2021/12/08 22:42:35;;;;;;;0.85;0.85;;;;;;;;;;12543557;28;20518;-74
2021/12/08 22:48:37;;;;;;;1.50;0.75;;;;;;;;;;12543743;28;20106;-73
2021/12/08 22:54:39;;;;;;;0.77;0.77;;;;;;;;;;12543423;28;20056;-74
2021/12/08 23:00:50;;;;;;;1.27;0.90;;;;;;;;;;12543013;28;20037;-74
2021/12/08 23:06:52;;;;;;;0.65;0.60;;;;;;;;;;12548975;28;20040;-74
2021/12/08 23:12:53;;;;;;;0.80;0.60;;;;;;;;;;12550909;28;20029;-74
2021/12/08 23:18:58;;;;;;;0.90;0.90;;;;;;;;;;12550378;28;20060;-73
2021/12/08 23:25:02;;;;;;;2.53;1.58;;;;;;;;;;12551424;28;20029;-73
2021/12/08 23:31:04;;;;;;;1.50;1.40;;;;;;;;;;12550036;28;20041;-74
2021/12/08 23:37:06;;;;;;;2.03;1.60;;;;;;;;;;12551231;28;20044;-73
2021/12/08 23:43:08;;;;;;;1.75;1.50;;;;;;;;;;12551083;28;20402;-73
2021/12/08 23:49:10;;;;;;;1.90;1.80;;;;;;;;;;12551150;28;20037;-74
2021/12/08 23:55:12;;;;;;;2.47;2.17;;;;;;;;;;12549142;28;20040;-73
